Time;durP1;ratioP1;P1;durP2;ratioP2;P2;SDS_P1;SDS_P2;PMS_P1;PMS_P2;Temp;Humidity;BMP_temperature;BMP_pressure;BME280_temperature;BME280_humidity;BME280_pressure;Samples;Min_cycle;Max_cycle;Signal;HPM_P1;HPM_P2
2021/08/25 00:00:00;;;;;;;5.70;3.40;;;12.60;97.30;;;;;;5019032;28;20215;-83
2021/08/25 00:02:25;;;;;;;10.53;4.10;;;12.60;97.30;;;;;;5018349;28;20481;-82
2021/08/25 00:04:51;;;;;;;9.20;4.20;;;12.60;97.30;;;;;;5017211;28;20181;-83
2021/08/25 00:07:16;;;;;;;10.73;3.77;;;12.60;97.30;;;;;;5017373;28;20242;-83
2021/08/25 00:09:42;;;;;;;9.33;3.60;;;12.60;97.30;;;;;;5016700;28;20192;-83
2021/08/25 00:12:10;;;;;;;8.43;4.30;;;12.50;97.30;;;;;;5015703;28;20295;-83
2021/08/25 00:14:37;;;;;;;9.20;3.97;;;12.50;97.30;;;;;;5012965;28;20173;-83
2021/08/25 00:17:03;;;;;;;5.60;3.73;;;12.50;97.30;;;;;;5013118;28;20743;-83
2021/08/25 00:19:28;;;;;;;7.90;3.77;;;12.40;97.30;;;;;;5014540;28;20519;-83
2021/08/25 00:21:54;;;;;;;9.50;4.10;;;12.30;97.30;;;;;;5013442;28;20412;-83
2021/08/25 00:24:20;;;;;;;6.63;3.70;;;12.30;97.30;;;;;;5017448;28;20223;-83
2021/08/25 00:26:46;;;;;;;11.93;4.03;;;12.30;97.30;;;;;;5036115;28;20380;-83
2021/08/25 00:29:13;;;;;;;7.60;3.63;;;12.30;97.30;;;;;;5017554;28;20443;-83
2021/08/25 00:31:40;;;;;;;7.30;3.73;;;12.20;97.30;;;;;;5017593;28;20415;-83
2021/08/25 00:34:06;;;;;;;9.77;4.33;;;12.20;97.30;;;;;;5016266;28;20557;-83
2021/08/25 00:36:31;;;;;;;7.73;3.90;;;12.20;97.30;;;;;;5016545;28;20506;-83
2021/08/25 00:38:56;;;;;;;6.30;3.73;;;12.10;97.30;;;;;;5016234;28;20192;-83
2021/08/25 00:41:22;;;;;;;9.43;3.60;;;12.10;97.30;;;;;;5015662;28;20702;-83
2021/08/25 00:43:47;;;;;;;8.73;4.07;;;12.00;97.30;;;;;;5015447;28;20177;-83
2021/08/25 00:46:13;;;;;;;13.13;3.70;;;12.00;97.30;;;;;;5016057;28;20199;-83
2021/08/25 00:48:39;;;;;;;6.63;3.80;;;11.90;97.30;;;;;;5015873;28;20196;-83
2021/08/25 00:51:05;;;;;;;9.80;3.60;;;11.90;97.30;;;;;;5033946;28;20184;-83
2021/08/25 00:53:31;;;;;;;8.63;3.50;;;11.80;97.30;;;;;;5016754;28;20458;-83
2021/08/25 00:55:58;;;;;;;7.33;3.90;;;11.80;97.30;;;;;;5035521;28;20199;-83
2021/08/25 00:58:25;;;;;;;7.80;3.43;;;11.80;97.30;;;;;;5034649;28;20188;-83
2021/08/25 01:01:02;;;;;;;8.30;4.17;;;11.70;97.30;;;;;;5016621;28;20450;-83
2021/08/25 01:03:54;;;;;;;10.93;5.23;;;11.70;97.30;;;;;;5016099;28;20427;-83
2021/08/25 01:06:25;;;;;;;7.90;3.80;;;11.60;97.30;;;;;;5034380;28;20450;-83
2021/08/25 01:08:51;;;;;;;9.20;3.97;;;11.60;97.30;;;;;;5015346;28;20976;-83
2021/08/25 01:11:17;;;;;;;12.20;5.27;;;11.60;97.30;;;;;;5014839;28;20431;-83
2021/08/25 01:13:43;;;;;;;11.57;5.10;;;11.60;97.30;;;;;;5015132;28;20512;-83
2021/08/25 01:16:09;;;;;;;5.70;3.50;;;11.60;97.30;;;;;;5033274;28;20445;-83
2021/08/25 01:18:35;;;;;;;7.00;3.80;;;11.60;97.30;;;;;;5016453;28;20236;-83
2021/08/25 01:21:03;;;;;;;12.53;4.10;;;11.60;97.30;;;;;;5015925;28;20436;-83
2021/08/25 01:23:31;;;;;;;8.00;4.03;;;11.50;97.30;;;;;;5017267;28;20769;-82
2021/08/25 01:26:01;;;;;;;8.87;3.87;;;11.50;97.30;;;;;;5013606;28;20447;-83
2021/08/25 01:28:35;;;;;;;11.67;4.10;;;11.50;97.30;;;;;;5014824;28;20569;-83
2021/08/25 01:31:02;;;;;;;9.43;3.63;;;11.50;97.30;;;;;;5013799;28;20773;-83
2021/08/25 01:33:29;;;;;;;8.13;3.97;;;11.50;97.30;;;;;;5014583;28;20540;-83
2021/08/25 01:35:56;;;;;;;7.20;3.67;;;11.40;97.30;;;;;;5027057;28;20585;-83
2021/08/25 01:38:48;;;;;;;9.90;3.70;;;11.40;97.30;;;;;;5015084;28;20439;-83
2021/08/25 01:41:14;;;;;;;6.83;3.63;;;11.30;97.30;;;;;;5014878;28;20921;-83
2021/08/25 01:43:40;;;;;;;11.13;4.27;;;11.30;97.30;;;;;;5032705;28;20427;-83
2021/08/25 01:46:05;;;;;;;7.13;3.43;;;11.30;97.30;;;;;;5014997;28;20475;-83
2021/08/25 01:48:32;;;;;;;11.00;3.83;;;11.20;97.30;;;;;;5014503;28;20197;-83
2021/08/25 01:50:58;;;;;;;8.33;4.27;;;11.20;97.30;;;;;;5016032;28;20287;-83
2021/08/25 01:53:24;;;;;;;6.97;3.97;;;11.20;97.30;;;;;;5016044;28;20551;-83
2021/08/25 01:55:49;;;;;;;7.77;3.97;;;11.10;97.30;;;;;;5016580;28;20176;-83
2021/08/25 01:58:15;;;;;;;8.47;3.87;;;11.10;97.30;;;;;;5015419;28;20196;-83
2021/08/25 02:00:40;;;;;;;12.00;4.17;;;11.10;97.30;;;;;;5032584;28;20212;-83
2021/08/25 02:03:06;;;;;;;7.60;4.07;;;11.10;97.30;;;;;;5015011;28;20219;-83
2021/08/25 02:05:31;;;;;;;9.73;3.23;;;11.00;97.30;;;;;;5015474;28;20643;-83
2021/08/25 02:07:57;;;;;;;8.90;3.70;;;11.00;97.30;;;;;;5031879;28;20200;-83
2021/08/25 02:10:22;;;;;;;11.17;3.43;;;11.00;97.30;;;;;;5012915;28;20176;-83
2021/08/25 02:12:48;;;;;;;6.30;3.80;;;10.90;97.30;;;;;;5014351;28;20240;-83
2021/08/25 02:15:13;;;;;;;8.00;3.93;;;10.90;97.30;;;;;;5014551;28;20172;-83
2021/08/25 02:17:40;;;;;;;10.30;3.60;;;10.90;97.30;;;;;;5014231;28;20228;-83
2021/08/25 02:20:07;;;;;;;9.60;4.13;;;10.90;97.30;;;;;;5016054;28;20262;-84
2021/08/25 02:22:32;;;;;;;8.03;3.70;;;10.80;97.30;;;;;;5015743;28;20434;-84
2021/08/25 02:24:58;;;;;;;6.30;3.57;;;10.80;97.30;;;;;;5033618;28;20419;-84
2021/08/25 02:27:23;;;;;;;7.37;4.30;;;10.80;97.30;;;;;;5014883;28;20211;-84
2021/08/25 02:29:55;;;;;;;7.40;3.50;;;10.70;97.30;;;;;;5014183;28;20560;-84
2021/08/25 02:32:23;;;;;;;8.83;3.80;;;10.70;97.30;;;;;;5032061;28;20305;-84
2021/08/25 02:34:48;;;;;;;8.03;4.03;;;10.70;97.30;;;;;;5013971;28;20450;-84
2021/08/25 02:37:14;;;;;;;6.20;3.70;;;10.70;97.30;;;;;;5013667;28;20524;-84
2021/08/25 02:39:39;;;;;;;7.80;4.20;;;10.70;97.30;;;;;;5031310;28;20661;-84
2021/08/25 02:42:05;;;;;;;6.97;3.83;;;10.70;97.30;;;;;;5014497;28;20176;-84
2021/08/25 02:44:30;;;;;;;13.30;3.30;;;10.60;97.30;;;;;;5014093;28;20188;-84
2021/08/25 02:46:56;;;;;;;8.03;3.80;;;10.70;97.30;;;;;;5014384;28;20184;-83
2021/08/25 02:49:21;;;;;;;7.33;3.30;;;10.70;97.30;;;;;;5003795;28;20180;-84
2021/08/25 02:51:47;;;;;;;7.30;3.80;;;10.70;97.30;;;;;;5033253;28;20454;-84
2021/08/25 02:54:12;;;;;;;5.17;3.20;;;10.80;97.30;;;;;;5015486;28;20215;-83
2021/08/25 02:56:38;;;;;;;7.03;3.43;;;10.70;97.30;;;;;;5014033;28;20754;-83
2021/08/25 02:59:03;;;;;;;9.30;4.27;;;10.70;97.30;;;;;;5013930;28;20239;-83
2021/08/25 03:01:29;;;;;;;7.13;3.87;;;10.70;97.30;;;;;;5013953;28;20176;-83
2021/08/25 03:03:55;;;;;;;9.30;4.03;;;10.70;97.30;;;;;;5030271;28;20241;-84
2021/08/25 03:06:20;;;;;;;9.40;4.30;;;10.70;97.30;;;;;;5013024;28;20176;-84
2021/08/25 03:08:45;;;;;;;7.60;3.50;;;10.60;97.30;;;;;;5013738;28;20273;-84
2021/08/25 03:11:11;;;;;;;7.40;3.40;;;10.60;97.30;;;;;;5013378;28;20176;-84
2021/08/25 03:13:39;;;;;;;6.37;3.50;;;10.60;97.30;;;;;;5013910;28;20212;-83
2021/08/25 03:16:04;;;;;;;8.93;3.57;;;10.70;97.30;;;;;;5015126;28;20177;-84
2021/08/25 03:18:30;;;;;;;7.57;3.70;;;10.60;97.30;;;;;;5032538;28;20820;-83
2021/08/25 03:20:55;;;;;;;7.70;4.07;;;10.60;97.30;;;;;;5015556;28;20173;-83
2021/08/25 03:23:21;;;;;;;9.97;4.20;;;10.60;97.30;;;;;;5018286;28;20183;-83
2021/08/25 03:25:46;;;;;;;7.97;4.03;;;10.60;97.30;;;;;;5017958;28;20653;-83
2021/08/25 03:28:12;;;;;;;9.80;4.33;;;10.50;97.30;;;;;;5035721;28;20192;-83
2021/08/25 03:30:37;;;;;;;9.60;4.67;;;10.50;97.30;;;;;;5017664;28;20604;-83
2021/08/25 03:33:06;;;;;;;11.03;3.73;;;10.50;97.30;;;;;;5035065;28;20221;-83
2021/08/25 03:35:32;;;;;;;10.77;4.80;;;10.50;97.30;;;;;;5017159;28;20533;-83
2021/08/25 03:37:58;;;;;;;8.17;3.80;;;10.50;97.30;;;;;;5017487;28;20446;-83
2021/08/25 03:40:23;;;;;;;11.23;5.30;;;10.40;97.30;;;;;;5016898;28;20811;-83
2021/08/25 03:42:49;;;;;;;7.80;4.53;;;10.40;97.30;;;;;;5017716;28;20187;-83
2021/08/25 03:45:14;;;;;;;8.80;4.03;;;10.40;97.30;;;;;;5018780;28;20234;-83
2021/08/25 03:47:40;;;;;;;8.47;4.07;;;10.40;97.30;;;;;;5036005;28;20211;-83
2021/08/25 03:50:07;;;;;;;11.33;4.30;;;10.40;97.30;;;;;;5017759;28;20204;-83
2021/08/25 03:52:33;;;;;;;19.07;4.13;;;10.40;97.30;;;;;;5016288;28;20354;-84
2021/08/25 03:54:58;;;;;;;11.50;4.67;;;10.40;97.30;;;;;;5017306;28;20459;-83
2021/08/25 03:57:24;;;;;;;8.07;4.20;;;10.40;97.30;;;;;;5017434;28;20435;-83
2021/08/25 03:59:49;;;;;;;10.10;4.77;;;10.30;97.30;;;;;;5017082;28;20524;-84
2021/08/25 04:02:15;;;;;;;8.47;5.20;;;10.30;97.30;;;;;;5016689;28;20184;-83
2021/08/25 04:04:40;;;;;;;10.60;4.80;;;10.30;97.30;;;;;;5016736;28;20181;-83
2021/08/25 04:07:06;;;;;;;8.50;4.33;;;10.30;97.30;;;;;;5012764;28;20193;-83
2021/08/25 04:09:31;;;;;;;9.40;4.23;;;10.30;97.30;;;;;;5016789;28;20283;-84
2021/08/25 04:11:57;;;;;;;13.00;4.77;;;10.30;97.30;;;;;;5035495;28;20271;-84
2021/08/25 04:14:22;;;;;;;10.10;4.10;;;10.30;97.30;;;;;;5018398;28;20185;-83
2021/08/25 04:16:48;;;;;;;7.07;4.60;;;10.30;97.30;;;;;;5018436;28;20215;-83
2021/08/25 04:19:13;;;;;;;10.17;4.43;;;10.30;97.30;;;;;;5014308;28;20246;-83
2021/08/25 04:21:38;;;;;;;10.20;4.40;;;10.30;97.30;;;;;;5007696;28;20202;-83
2021/08/25 04:24:04;;;;;;;7.57;4.17;;;10.30;97.30;;;;;;5013315;28;20185;-83
2021/08/25 04:26:30;;;;;;;12.03;5.00;;;10.30;97.30;;;;;;5015038;28;20231;-84
2021/08/25 04:28:55;;;;;;;14.47;5.00;;;10.30;97.30;;;;;;5014605;28;20206;-84
2021/08/25 04:31:21;;;;;;;10.73;4.57;;;10.30;97.30;;;;;;5012927;28;20192;-83
2021/08/25 04:33:46;;;;;;;8.43;4.40;;;10.30;97.30;;;;;;5011941;28;20299;-83
2021/08/25 04:36:12;;;;;;;8.83;4.83;;;10.30;97.30;;;;;;5012779;28;20182;-83
2021/08/25 04:38:37;;;;;;;10.03;4.20;;;10.30;97.30;;;;;;4993960;28;20202;-84
2021/08/25 04:41:03;;;;;;;8.80;4.87;;;10.30;97.30;;;;;;4994791;28;20181;-83
2021/08/25 04:43:28;;;;;;;10.47;4.90;;;10.30;97.30;;;;;;4994969;28;20174;-83
2021/08/25 04:45:54;;;;;;;12.70;4.50;;;10.30;97.30;;;;;;5004109;28;20573;-84
2021/08/25 04:48:20;;;;;;;15.77;5.40;;;10.30;97.30;;;;;;5012089;28;20220;-83
2021/08/25 04:50:46;;;;;;;11.03;5.17;;;10.30;97.30;;;;;;5012419;28;20941;-84
2021/08/25 04:53:11;;;;;;;8.37;4.47;;;10.30;97.30;;;;;;5012852;28;20444;-84
2021/08/25 04:55:38;;;;;;;9.40;5.00;;;10.40;97.30;;;;;;5013214;28;20224;-83
2021/08/25 04:58:04;;;;;;;15.00;4.90;;;10.40;97.30;;;;;;5012775;28;20197;-83
2021/08/25 05:00:30;;;;;;;13.47;5.60;;;10.40;97.30;;;;;;5013692;28;20440;-84
2021/08/25 05:02:55;;;;;;;10.70;4.30;;;10.40;97.30;;;;;;5012000;28;20476;-84
2021/08/25 05:05:21;;;;;;;10.20;5.10;;;10.40;97.30;;;;;;5013928;28;20212;-84
2021/08/25 05:07:46;;;;;;;13.77;5.20;;;10.40;97.30;;;;;;5013652;28;20205;-83
2021/08/25 05:10:12;;;;;;;15.30;6.50;;;10.40;97.30;;;;;;5012874;28;20204;-83
2021/08/25 05:12:37;;;;;;;12.93;5.40;;;10.40;97.30;;;;;;5013895;28;20194;-83
2021/08/25 05:15:05;;;;;;;14.63;6.20;;;10.50;97.30;;;;;;5015201;28;20181;-83
2021/08/25 05:17:31;;;;;;;14.17;6.10;;;10.50;97.30;;;;;;5013644;28;20228;-83
2021/08/25 05:20:06;;;;;;;8.33;4.77;;;10.50;97.30;;;;;;5012848;28;20419;-84
2021/08/25 05:22:32;;;;;;;11.10;5.13;;;10.60;97.30;;;;;;5012904;28;20177;-83
2021/08/25 05:24:57;;;;;;;11.47;6.00;;;10.60;97.30;;;;;;5013656;28;20447;-84
2021/08/25 05:27:23;;;;;;;14.17;6.10;;;10.70;97.30;;;;;;5014139;28;20196;-84
2021/08/25 05:29:49;;;;;;;10.07;4.97;;;10.70;97.30;;;;;;5012946;28;20172;-84
2021/08/25 05:32:14;;;;;;;14.30;4.83;;;10.80;97.30;;;;;;5011347;28;20201;-83
2021/08/25 05:34:40;;;;;;;17.30;6.87;;;10.90;97.30;;;;;;5012532;28;20571;-84
2021/08/25 05:37:05;;;;;;;13.70;6.57;;;11.00;97.30;;;;;;4997436;28;20685;-84
2021/08/25 05:39:31;;;;;;;10.43;5.00;;;11.00;97.30;;;;;;4992958;28;20278;-84
2021/08/25 05:41:56;;;;;;;11.07;5.33;;;11.10;97.30;;;;;;4993469;28;20243;-83
2021/08/25 05:44:22;;;;;;;9.73;4.70;;;11.20;97.30;;;;;;4995248;28;20250;-83
2021/08/25 05:46:48;;;;;;;14.43;5.23;;;11.20;97.30;;;;;;5007764;28;20181;-83
2021/08/25 05:49:13;;;;;;;13.13;5.70;;;11.30;97.30;;;;;;5014598;28;20304;-84
2021/08/25 05:51:39;;;;;;;10.70;6.13;;;11.30;97.30;;;;;;5013888;28;20173;-84
2021/08/25 05:54:04;;;;;;;13.70;5.37;;;11.40;97.30;;;;;;5024447;28;20205;-84
2021/08/25 05:56:30;;;;;;;13.40;6.00;;;11.40;97.30;;;;;;5013028;28;20739;-84
2021/08/25 05:58:55;;;;;;;13.97;5.43;;;11.50;97.30;;;;;;5012389;28;20555;-84
2021/08/25 06:01:21;;;;;;;11.63;6.13;;;11.50;97.30;;;;;;4995604;28;20214;-83
2021/08/25 06:03:46;;;;;;;17.67;5.20;;;11.60;97.30;;;;;;4993012;28;20553;-83
2021/08/25 06:06:12;;;;;;;12.13;5.20;;;11.60;97.30;;;;;;5000085;28;20221;-84
2021/08/25 06:08:39;;;;;;;10.17;4.70;;;11.70;97.30;;;;;;5012863;28;20272;-83
2021/08/25 06:11:05;;;;;;;10.20;4.50;;;11.70;97.30;;;;;;5013593;28;20173;-84
2021/08/25 06:13:30;;;;;;;10.30;4.70;;;11.80;97.30;;;;;;5012665;28;20463;-83
2021/08/25 06:15:56;;;;;;;15.10;5.73;;;11.80;97.30;;;;;;5012835;28;20173;-84
2021/08/25 06:18:21;;;;;;;10.80;4.90;;;11.90;97.30;;;;;;5011966;28;20724;-84
2021/08/25 06:20:47;;;;;;;13.37;4.20;;;11.90;97.30;;;;;;5013114;28;20174;-83
2021/08/25 06:23:13;;;;;;;10.30;4.30;;;12.00;97.30;;;;;;5010979;28;20189;-84
2021/08/25 06:25:40;;;;;;;9.30;4.67;;;12.10;97.30;;;;;;5012445;28;20679;-84
2021/08/25 06:28:06;;;;;;;11.17;4.50;;;12.20;97.30;;;;;;5011243;28;20470;-83
2021/08/25 06:30:31;;;;;;;7.77;4.50;;;12.20;97.30;;;;;;5010695;28;20820;-83
2021/08/25 06:32:57;;;;;;;9.43;4.90;;;12.30;97.30;;;;;;5010548;28;20205;-84
2021/08/25 06:35:23;;;;;;;9.40;4.30;;;12.40;97.30;;;;;;5012220;28;20174;-83
2021/08/25 06:37:49;;;;;;;9.33;5.07;;;12.50;97.30;;;;;;5010390;28;20291;-83
2021/08/25 06:40:15;;;;;;;10.53;4.30;;;12.50;97.30;;;;;;5010122;28;20208;-83
2021/08/25 06:42:42;;;;;;;10.07;4.80;;;12.60;97.30;;;;;;5012560;28;20820;-84
2021/08/25 06:45:08;;;;;;;9.70;4.73;;;12.70;97.30;;;;;;5012236;28;20446;-83
2021/08/25 06:47:35;;;;;;;8.80;4.20;;;12.80;97.30;;;;;;5012381;28;20498;-84
2021/08/25 06:50:01;;;;;;;10.37;4.43;;;12.90;97.30;;;;;;4993136;28;20647;-83
2021/08/25 06:52:26;;;;;;;11.90;5.20;;;13.00;97.30;;;;;;5011967;28;20543;-84
2021/08/25 06:54:52;;;;;;;11.10;5.10;;;13.00;97.30;;;;;;5011350;28;20600;-84
2021/08/25 06:57:17;;;;;;;10.17;5.10;;;13.10;97.30;;;;;;5015440;28;20201;-83
2021/08/25 06:59:43;;;;;;;8.67;4.27;;;13.20;97.30;;;;;;5028144;28;20199;-83
2021/08/25 07:02:08;;;;;;;11.03;4.70;;;13.30;97.30;;;;;;5028658;28;20205;-83
2021/08/25 07:04:34;;;;;;;13.50;4.93;;;13.40;97.30;;;;;;5028718;28;20205;-84
2021/08/25 07:06:59;;;;;;;21.80;5.67;;;13.50;97.30;;;;;;5027230;28;20224;-83
2021/08/25 07:09:25;;;;;;;10.30;5.17;;;13.60;97.30;;;;;;5028335;28;20209;-83
2021/08/25 07:11:50;;;;;;;16.07;5.03;;;13.70;97.30;;;;;;5029019;28;20200;-84
2021/08/25 07:14:16;;;;;;;11.97;4.57;;;13.80;97.30;;;;;;5014578;28;20246;-83
2021/08/25 07:16:41;;;;;;;11.37;4.73;;;13.90;97.30;;;;;;5012426;28;20698;-83
2021/08/25 07:19:07;;;;;;;7.03;3.97;;;14.00;97.30;;;;;;5011568;28;20257;-83
2021/08/25 07:21:33;;;;;;;10.67;4.53;;;14.10;97.30;;;;;;5012717;28;20632;-83
2021/08/25 07:23:58;;;;;;;10.23;4.50;;;14.20;97.30;;;;;;5008138;28;20189;-84
2021/08/25 07:26:24;;;;;;;9.07;4.80;;;14.30;97.30;;;;;;5008827;28;20796;-83
2021/08/25 07:28:50;;;;;;;12.80;4.50;;;14.40;97.30;;;;;;5010156;28;20204;-83
2021/08/25 07:31:16;;;;;;;13.07;4.37;;;14.50;97.30;;;;;;5010960;28;20174;-84
2021/08/25 07:33:42;;;;;;;10.40;4.70;;;14.60;97.30;;;;;;5010126;28;20259;-84
2021/08/25 07:36:08;;;;;;;9.23;3.93;;;14.60;97.30;;;;;;5010232;28;20420;-84
2021/08/25 07:38:33;;;;;;;11.83;4.43;;;14.80;97.30;;;;;;5010017;28;20950;-84
2021/08/25 07:40:59;;;;;;;7.40;4.20;;;14.80;97.30;;;;;;5010821;28;20470;-83
2021/08/25 07:43:26;;;;;;;12.67;4.10;;;14.90;97.30;;;;;;4997286;28;20213;-83
2021/08/25 07:45:52;;;;;;;9.53;4.03;;;15.00;97.30;;;;;;4992940;28;20570;-84
2021/08/25 07:48:17;;;;;;;8.60;4.37;;;15.20;97.30;;;;;;4998472;28;20447;-83
2021/08/25 07:50:43;;;;;;;6.50;3.40;;;15.30;97.30;;;;;;5010819;28;20219;-83
2021/08/25 07:53:08;;;;;;;9.70;3.43;;;15.40;97.30;;;;;;5010175;28;20212;-84
2021/08/25 07:55:34;;;;;;;8.43;4.53;;;15.50;97.30;;;;;;5010648;28;20223;-83
2021/08/25 07:57:59;;;;;;;12.33;4.40;;;15.60;97.30;;;;;;5010462;28;20197;-83
2021/08/25 08:00:25;;;;;;;12.00;3.90;;;15.70;97.30;;;;;;5009949;28;20204;-83
2021/08/25 08:02:50;;;;;;;9.57;4.03;;;15.80;97.30;;;;;;5009468;28;20262;-84
2021/08/25 08:05:16;;;;;;;8.70;4.20;;;15.90;97.30;;;;;;5004755;28;20198;-84
2021/08/25 08:07:41;;;;;;;7.63;3.93;;;16.00;97.30;;;;;;4990622;28;20206;-83
2021/08/25 08:10:07;;;;;;;8.97;4.13;;;16.00;97.30;;;;;;4993671;28;20186;-83
2021/08/25 08:12:33;;;;;;;8.43;4.00;;;16.10;97.30;;;;;;4994514;28;20771;-83
2021/08/25 08:14:58;;;;;;;8.10;4.27;;;16.10;97.30;;;;;;4996399;28;20444;-83
2021/08/25 08:17:24;;;;;;;8.40;3.50;;;16.10;97.30;;;;;;5014547;28;20220;-83
2021/08/25 08:19:51;;;;;;;9.93;3.77;;;16.20;97.30;;;;;;5016594;28;20617;-83
2021/08/25 08:22:17;;;;;;;10.30;3.57;;;16.20;97.30;;;;;;5014804;28;20419;-83
2021/08/25 08:24:43;;;;;;;6.87;3.27;;;16.30;97.30;;;;;;5015525;28;20586;-84
2021/08/25 08:27:08;;;;;;;6.97;3.47;;;16.30;97.30;;;;;;5013261;28;20458;-83
2021/08/25 08:29:35;;;;;;;10.90;4.20;;;16.30;97.30;;;;;;5013468;28;20185;-84
2021/08/25 08:32:01;;;;;;;10.00;3.83;;;16.40;97.30;;;;;;5015008;28;20189;-84
2021/08/25 08:34:26;;;;;;;7.17;3.77;;;16.40;97.30;;;;;;5013061;28;20430;-84
2021/08/25 08:36:52;;;;;;;8.97;3.23;;;16.40;97.30;;;;;;5012586;28;20470;-83
2021/08/25 08:39:18;;;;;;;10.70;3.77;;;16.50;97.30;;;;;;5013995;28;20256;-84
2021/08/25 08:41:43;;;;;;;8.43;3.53;;;16.50;97.30;;;;;;5012505;28;20169;-83
2021/08/25 08:44:11;;;;;;;7.17;3.57;;;16.50;97.30;;;;;;5012877;28;20423;-83
2021/08/25 08:46:39;;;;;;;6.83;3.53;;;16.60;97.30;;;;;;5014112;28;20177;-84
2021/08/25 08:49:06;;;;;;;9.63;2.93;;;16.70;97.30;;;;;;5002366;28;20901;-84
2021/08/25 08:51:32;;;;;;;9.10;3.83;;;16.70;97.30;;;;;;4998343;28;20471;-84
2021/08/25 08:53:58;;;;;;;7.70;3.73;;;16.80;97.30;;;;;;5014637;28;20531;-84
2021/08/25 08:56:23;;;;;;;8.70;4.10;;;16.90;97.30;;;;;;5013712;28;20258;-84
2021/08/25 08:58:50;;;;;;;8.30;3.90;;;17.00;97.30;;;;;;5013481;28;20228;-83
2021/08/25 09:01:16;;;;;;;6.97;4.07;;;17.00;97.30;;;;;;5012960;28;20174;-84
2021/08/25 09:03:41;;;;;;;8.57;3.63;;;17.10;97.30;;;;;;5012864;28;20412;-84
2021/08/25 09:06:08;;;;;;;8.07;4.03;;;17.20;97.30;;;;;;5013814;28;20188;-84
2021/08/25 09:08:35;;;;;;;6.13;2.70;;;17.20;97.30;;;;;;5012025;28;20228;-84
2021/08/25 09:11:13;;;;;;;4.73;2.67;;;17.30;97.30;;;;;;5012304;28;20875;-84
2021/08/25 09:13:47;;;;;;;4.70;2.50;;;17.40;95.90;;;;;;5013026;28;20826;-84
2021/08/25 09:16:30;;;;;;;9.90;3.33;;;17.50;95.60;;;;;;5012331;28;20434;-84
2021/08/25 09:19:08;;;;;;;7.50;3.10;;;17.50;95.00;;;;;;5011849;28;20483;-84
2021/08/25 09:21:46;;;;;;;6.73;3.47;;;17.50;95.90;;;;;;5014776;28;20426;-84
2021/08/25 09:24:13;;;;;;;7.83;3.53;;;17.60;95.40;;;;;;5008720;28;20432;-84
2021/08/25 09:27:12;;;;;;;6.90;3.30;;;17.70;95.80;;;;;;4994238;28;20417;-84
2021/08/25 09:29:39;;;;;;;8.13;3.10;;;17.80;94.90;;;;;;4993407;28;20420;-84
2021/08/25 09:32:19;;;;;;;3.73;2.87;;;17.90;94.20;;;;;;4995216;28;20417;-84
2021/08/25 09:34:45;;;;;;;8.80;3.20;;;18.00;94.50;;;;;;5013557;28;20436;-84
2021/08/25 09:37:14;;;;;;;6.20;3.20;;;18.10;94.40;;;;;;5012219;28;20803;-83
2021/08/25 09:39:49;;;;;;;5.23;2.77;;;18.20;92.70;;;;;;5011858;28;20180;-84
2021/08/25 09:42:16;;;;;;;5.53;2.97;;;18.30;93.20;;;;;;5011374;28;20431;-84
2021/08/25 09:44:43;;;;;;;6.83;3.47;;;18.40;93.60;;;;;;5012005;28;20462;-83
2021/08/25 09:47:09;;;;;;;7.93;3.07;;;18.50;92.50;;;;;;5012098;28;20459;-84
2021/08/25 09:49:35;;;;;;;9.10;3.13;;;18.60;91.60;;;;;;5011468;28;20439;-84
2021/08/25 09:52:00;;;;;;;7.73;2.73;;;18.70;90.00;;;;;;5012344;28;20671;-84
2021/08/25 09:54:26;;;;;;;6.10;3.00;;;18.80;90.00;;;;;;5014565;28;20255;-84
2021/08/25 09:56:53;;;;;;;5.07;3.13;;;18.80;90.60;;;;;;5011943;28;20189;-84
2021/08/25 09:59:20;;;;;;;4.93;3.10;;;18.80;90.50;;;;;;4993778;28;20563;-84
2021/08/25 10:01:46;;;;;;;6.30;3.10;;;18.80;91.00;;;;;;5013163;28;20435;-84
2021/08/25 10:04:16;;;;;;;7.20;3.30;;;18.80;91.00;;;;;;5011574;28;20416;-84
2021/08/25 10:06:45;;;;;;;8.60;3.60;;;18.70;91.30;;;;;;5011378;28;20891;-84
2021/08/25 10:09:12;;;;;;;5.80;2.80;;;18.70;90.70;;;;;;4995021;28;20448;-84
2021/08/25 10:11:43;;;;;;;6.30;3.20;;;18.70;90.70;;;;;;5012025;28;20909;-84
2021/08/25 10:14:11;;;;;;;4.50;3.07;;;18.70;91.70;;;;;;5011142;28;20634;-84
2021/08/25 10:16:55;;;;;;;7.10;3.20;;;18.70;92.90;;;;;;5012817;28;20412;-83
2021/08/25 10:19:23;;;;;;;6.50;3.20;;;18.70;91.00;;;;;;5014354;28;20470;-84
2021/08/25 10:21:49;;;;;;;6.97;3.00;;;18.70;91.30;;;;;;5030589;28;20774;-84
2021/08/25 10:24:14;;;;;;;6.67;3.10;;;18.80;91.90;;;;;;5014989;28;20502;-84
2021/08/25 10:26:58;;;;;;;7.10;3.30;;;18.90;91.30;;;;;;5033503;28;20262;-84
2021/08/25 10:29:28;;;;;;;9.67;3.43;;;18.90;91.60;;;;;;5015988;28;20184;-84
2021/08/25 10:31:54;;;;;;;6.00;2.80;;;19.00;91.50;;;;;;5015313;28;20463;-84
2021/08/25 10:34:23;;;;;;;5.37;3.20;;;19.10;90.70;;;;;;5014968;28;20521;-84
2021/08/25 10:36:50;;;;;;;6.47;3.23;;;19.20;90.80;;;;;;5032176;28;20443;-84
2021/08/25 10:39:36;;;;;;;6.00;3.23;;;19.40;92.00;;;;;;5014166;28;20454;-84
2021/08/25 10:42:03;;;;;;;5.20;2.90;;;19.60;91.10;;;;;;5014436;28;20415;-83
2021/08/25 10:44:41;;;;;;;7.73;2.87;;;19.70;91.30;;;;;;5013609;28;20415;-84
2021/08/25 10:47:15;;;;;;;8.70;3.10;;;19.80;90.50;;;;;;5013840;28;20456;-84
2021/08/25 10:49:49;;;;;;;4.90;2.70;;;19.80;89.40;;;;;;5031402;28;20419;-84
2021/08/25 10:52:14;;;;;;;6.13;3.40;;;19.80;90.40;;;;;;5009752;28;20494;-84
2021/08/25 10:54:45;;;;;;;5.53;2.87;;;20.00;89.40;;;;;;5010403;28;20519;-84
2021/08/25 10:57:13;;;;;;;5.07;2.77;;;20.00;90.20;;;;;;5012033;28;20655;-84
2021/08/25 10:59:38;;;;;;;6.53;3.23;;;20.00;90.60;;;;;;5016585;28;20431;-84
2021/08/25 11:02:04;;;;;;;8.00;3.70;;;20.10;91.20;;;;;;5015725;28;20415;-84
2021/08/25 11:04:30;;;;;;;7.23;3.40;;;20.20;91.50;;;;;;5015143;28;20202;-84
2021/08/25 11:07:05;;;;;;;6.83;3.20;;;20.20;89.80;;;;;;5021705;28;20463;-84
2021/08/25 11:09:44;;;;;;;10.83;2.97;;;20.20;89.80;;;;;;5012577;28;20263;-84
2021/08/25 11:12:12;;;;;;;6.17;2.90;;;20.20;90.80;;;;;;5014465;28;20458;-84
2021/08/25 11:14:47;;;;;;;5.60;2.70;;;20.30;89.70;;;;;;5014133;28;20539;-85
2021/08/25 11:17:18;;;;;;;6.00;3.33;;;20.30;90.60;;;;;;5012858;28;20522;-83
2021/08/25 11:19:53;;;;;;;5.87;2.80;;;20.40;90.80;;;;;;5012764;28;20435;-82
2021/08/25 11:22:25;;;;;;;4.80;2.77;;;20.40;90.40;;;;;;4993862;28;20424;-82
2021/08/25 11:24:56;;;;;;;5.83;3.07;;;20.40;88.30;;;;;;5012715;28;20509;-83
2021/08/25 11:27:33;;;;;;;8.73;2.87;;;20.30;88.30;;;;;;5013425;28;20447;-82
2021/08/25 11:30:26;;;;;;;4.40;2.80;;;20.30;89.80;;;;;;5032129;28;20411;-82
2021/08/25 11:33:08;;;;;;;6.50;3.33;;;20.40;91.80;;;;;;5012085;28;20475;-82
2021/08/25 11:35:38;;;;;;;4.73;3.20;;;20.50;89.30;;;;;;5032979;28;20908;-82
2021/08/25 11:38:09;;;;;;;4.07;2.77;;;20.40;88.20;;;;;;5014222;28;20455;-83
2021/08/25 11:40:41;;;;;;;8.07;3.77;;;20.40;89.30;;;;;;5013634;28;20673;-83
2021/08/25 11:43:14;;;;;;;9.23;3.30;;;20.40;89.70;;;;;;5034414;28;20415;-82
2021/08/25 11:45:42;;;;;;;7.37;3.27;;;20.40;89.50;;;;;;5035273;28;20419;-83
2021/08/25 11:48:08;;;;;;;6.67;2.70;;;20.40;88.80;;;;;;5017331;28;20454;-83
2021/08/25 11:50:39;;;;;;;4.87;2.90;;;20.40;88.40;;;;;;5013155;28;20440;-83
2021/08/25 11:53:19;;;;;;;6.63;2.83;;;20.30;88.70;;;;;;5013578;28;20479;-82
2021/08/25 11:55:46;;;;;;;8.90;2.90;;;20.30;89.10;;;;;;5016651;28;20519;-82
2021/08/25 11:58:26;;;;;;;7.03;2.87;;;20.30;89.90;;;;;;5017294;28;20969;-82
2021/08/25 12:00:54;;;;;;;5.10;2.43;;;20.20;89.70;;;;;;5013515;28;20432;-82
2021/08/25 12:03:21;;;;;;;8.23;4.13;;;20.20;89.20;;;;;;5016928;28;20434;-82
2021/08/25 12:05:54;;;;;;;4.47;2.73;;;20.20;89.80;;;;;;5018389;28;20459;-83
2021/08/25 12:08:20;;;;;;;6.20;2.80;;;20.20;89.40;;;;;;5027899;28;20448;-83
2021/08/25 12:11:01;;;;;;;6.77;3.10;;;20.30;90.60;;;;;;5015256;28;20428;-82
2021/08/25 12:13:31;;;;;;;5.30;2.70;;;20.40;89.70;;;;;;5025585;28;20473;-82
2021/08/25 12:15:58;;;;;;;6.50;3.27;;;20.50;88.70;;;;;;5017678;28;20434;-82
2021/08/25 12:18:26;;;;;;;6.93;3.83;;;20.50;88.90;;;;;;5017322;28;20984;-82
2021/08/25 12:20:54;;;;;;;5.30;2.97;;;20.50;88.80;;;;;;5035596;28;20411;-83
2021/08/25 12:23:22;;;;;;;5.10;2.90;;;20.50;88.20;;;;;;5017750;28;20458;-82
2021/08/25 12:25:54;;;;;;;7.43;3.00;;;20.50;88.50;;;;;;5015868;28;20439;-82
2021/08/25 12:28:32;;;;;;;7.27;3.10;;;20.50;88.40;;;;;;5016113;28;20458;-82
2021/08/25 12:31:18;;;;;;;5.70;2.90;;;20.40;88.40;;;;;;5016213;28;20843;-83
2021/08/25 12:33:46;;;;;;;7.80;2.80;;;20.50;89.80;;;;;;5012821;28;20456;-82
2021/08/25 12:36:28;;;;;;;4.37;2.80;;;20.50;89.50;;;;;;5013227;28;20435;-82
2021/08/25 12:39:08;;;;;;;5.80;2.70;;;20.40;88.60;;;;;;5013790;28;20442;-83
2021/08/25 12:41:35;;;;;;;5.43;3.10;;;20.50;88.80;;;;;;5014853;28;20430;-81
2021/08/25 12:44:00;;;;;;;5.17;2.90;;;20.40;88.70;;;;;;5017955;28;20426;-82